createdAt,value
2022-12-09T00:03:58.887Z,4.1
2022-12-09T00:14:48.320Z,4.2
2022-12-09T00:19:57.472Z,4.2
2022-12-09T00:25:36.392Z,4.3
2022-12-09T00:31:01.046Z,4.3
2022-12-09T00:36:41.819Z,4.2
2022-12-09T00:42:22.463Z,4.3
2022-12-09T00:53:27.231Z,4.3
2022-12-09T00:59:07.534Z,4.3
2022-12-09T01:04:49.821Z,4.3
2022-12-09T01:10:30.604Z,4.1
2022-12-09T01:21:19.369Z,4
2022-12-09T01:26:59.712Z,3.8
2022-12-09T01:32:25.861Z,3.8
2022-12-09T01:37:49.666Z,3.7
2022-12-09T01:42:59.530Z,3.6
2022-12-09T01:48:40.452Z,3.7
2022-12-09T01:54:19.832Z,3.6
2022-12-09T02:00:00.719Z,3.5
2022-12-09T02:05:44.062Z,3.6
2022-12-09T02:11:24.397Z,3.8
2022-12-09T02:17:05.951Z,3.4
2022-12-09T02:22:47.074Z,3.6
2022-12-09T02:28:12.329Z,3.6
2022-12-09T02:33:54.421Z,3.7
2022-12-09T02:39:34.805Z,3.6
2022-12-09T02:45:19.119Z,3.5
2022-12-09T02:51:02.296Z,3.4
2022-12-09T02:56:27.200Z,3.5
2022-12-09T03:01:54.309Z,3.5
2022-12-09T03:07:20.573Z,3.6
2022-12-09T03:13:01.266Z,3.7
2022-12-09T03:18:42.933Z,3.6
2022-12-09T03:24:23.913Z,3.9
2022-12-09T03:29:49.813Z,3.8
2022-12-09T03:35:17.059Z,3.7
2022-12-09T03:41:04.872Z,3.6
2022-12-09T03:46:29.789Z,3.8
2022-12-09T03:51:39.895Z,3.6
2022-12-09T03:57:21.355Z,3.6
2022-12-09T04:02:32.367Z,3.5
2022-12-09T04:08:13.765Z,3.6
2022-12-09T04:13:56.577Z,3.4
2022-12-09T04:19:41.957Z,3.3
2022-12-09T04:25:28.544Z,3.3
2022-12-09T04:31:08.828Z,3.2
2022-12-09T04:42:06.248Z,3.2
2022-12-09T04:47:33.201Z,3.3
2022-12-09T04:53:07.136Z,3.3
2022-12-09T04:58:47.059Z,3.4
2022-12-09T05:04:32.733Z,3.6
2022-12-09T05:10:20.170Z,3.6
2022-12-09T05:15:45.879Z,3.4
2022-12-09T05:20:59.584Z,3.6
2022-12-09T05:26:30.083Z,3.5
2022-12-09T05:32:00.899Z,3.4
2022-12-09T05:37:55.973Z,3.6
2022-12-09T05:43:47.278Z,3.5
2022-12-09T05:49:33.001Z,3.5
2022-12-09T05:55:17.463Z,3.6
2022-12-09T06:00:50.859Z,3.7
2022-12-09T06:06:04.356Z,3.8
2022-12-09T06:11:55.778Z,3.8
2022-12-09T06:17:42.556Z,3.9
2022-12-09T06:23:25.862Z,3.9
2022-12-09T06:29:16.999Z,3.9
2022-12-09T06:35:31.932Z,4
2022-12-09T06:41:14.311Z,4
2022-12-09T06:46:45.065Z,3.9
2022-12-09T06:52:28.781Z,4.1
2022-12-09T06:58:15.176Z,4.2
2022-12-09T07:03:46.850Z,4.2
2022-12-09T07:09:34.722Z,4.3
2022-12-09T07:15:19.350Z,4.6
2022-12-09T07:21:13.281Z,4.7
2022-12-09T07:26:58.560Z,4.9
2022-12-09T07:32:48.611Z,5.3
2022-12-09T07:38:40.411Z,5.4
2022-12-09T07:44:29.771Z,5.5
2022-12-09T07:50:04.581Z,5.8
2022-12-09T07:55:49.638Z,6
2022-12-09T08:01:33.079Z,6.1
2022-12-09T08:07:20.401Z,6.1
2022-12-09T08:13:14.141Z,6.4
2022-12-09T08:19:07.536Z,6.4
2022-12-09T08:24:53.738Z,6.6
2022-12-09T08:30:39.423Z,6.8
2022-12-09T08:36:29.250Z,7.1
2022-12-09T08:42:13.583Z,7
2022-12-09T08:47:58.770Z,7.1
2022-12-09T08:53:48.928Z,7.3
2022-12-09T08:59:31.143Z,7.6
2022-12-09T09:05:18.702Z,8.5
2022-12-09T09:11:08.383Z,8.9
2022-12-09T09:17:00.087Z,8.9
2022-12-09T09:22:49.162Z,9.2
2022-12-09T09:28:32.845Z,9.4
2022-12-09T09:34:20.054Z,10.6
2022-12-09T09:40:12.720Z,11.3
2022-12-09T09:45:56.989Z,10.9
2022-12-09T09:51:27.976Z,11.7
2022-12-09T09:57:18.751Z,11.8
2022-12-09T10:03:08.254Z,12.4
2022-12-09T10:08:58.482Z,11.8
2022-12-09T10:14:56.235Z,12.2
2022-12-09T10:20:32.470Z,12.6
2022-12-09T10:26:25.659Z,11.8
2022-12-09T10:32:17.062Z,11.7
2022-12-09T10:38:06.861Z,11.7
2022-12-09T10:43:50.572Z,11.4
2022-12-09T10:50:04.960Z,11.6
2022-12-09T10:55:52.261Z,11.6
2022-12-09T11:01:42.334Z,11.8
2022-12-09T11:07:33.824Z,11.6
2022-12-09T11:13:30.227Z,11.4
2022-12-09T11:19:19.995Z,11.5
2022-12-09T11:25:14.017Z,11.3
2022-12-09T11:31:43.786Z,11.4
2022-12-09T11:37:34.362Z,11.3
2022-12-09T11:43:05.146Z,11.5
2022-12-09T11:49:33.931Z,11.4
2022-12-09T11:54:57.631Z,11.8
2022-12-09T12:00:26.923Z,12.1
2022-12-09T12:06:12.012Z,11.6
2022-12-09T12:11:35.011Z,12
2022-12-09T12:16:57.798Z,12.2
2022-12-09T12:22:20.351Z,12.3
2022-12-09T12:28:05.801Z,12.2
2022-12-09T12:34:55.731Z,12.3
2022-12-09T12:40:21.994Z,12.2
2022-12-09T12:46:02.254Z,12.3
2022-12-09T12:51:41.299Z,12
2022-12-09T12:58:00.523Z,11.9
2022-12-09T13:03:43.223Z,11.9
2022-12-09T13:09:21.422Z,11.9
2022-12-09T13:15:06.731Z,11.9
2022-12-09T13:20:45.145Z,11.9
2022-12-09T13:26:28.615Z,11.9
2022-12-09T13:31:58.204Z,11.8
2022-12-09T13:37:26.525Z,11.8
2022-12-09T13:42:49.345Z,11.7
2022-12-09T13:48:33.401Z,11.7
2022-12-09T13:54:17.229Z,11.6
2022-12-09T13:59:56.406Z,11.8
2022-12-09T14:05:06.058Z,11.6
2022-12-09T14:10:50.809Z,11.2
2022-12-09T14:16:29.337Z,11.4
2022-12-09T14:22:08.033Z,11.1
2022-12-09T14:27:52.546Z,11.1
2022-12-09T14:33:31.395Z,11.1
2022-12-09T14:38:49.573Z,10.9
2022-12-09T14:44:46.269Z,11
2022-12-09T14:50:39.499Z,11.1
2022-12-09T14:56:18.268Z,11.1
2022-12-09T15:02:00.492Z,11.2
2022-12-09T15:08:04.641Z,10.9
2022-12-09T15:13:42.555Z,10.8
2022-12-09T15:19:37.208Z,10.6
2022-12-09T15:25:23.299Z,10.5
2022-12-09T15:30:45.797Z,10.3
2022-12-09T15:36:11.484Z,10.3
2022-12-09T15:41:34.728Z,10.1
